sensor_id;sensor_type;location;lat;lon;timestamp;temperature;humidity
1534;DHT22;760;48.822;9.304;2023-03-04T05:05:50;-0.90;99.90
1534;DHT22;760;48.822;9.304;2023-03-04T05:08:15;-0.90;99.90
1534;DHT22;760;48.822;9.304;2023-03-04T05:10:41;-0.90;99.90
1534;DHT22;760;48.822;9.304;2023-03-04T05:13:06;-0.90;99.90
1534;DHT22;760;48.822;9.304;2023-03-04T05:15:32;-1.00;99.90
1534;DHT22;760;48.822;9.304;2023-03-04T05:17:57;-1.00;99.90
1534;DHT22;760;48.822;9.304;2023-03-04T05:20:23;-1.00;99.90
1534;DHT22;760;48.822;9.304;2023-03-04T05:22:49;-1.00;99.90
1534;DHT22;760;48.822;9.304;2023-03-04T05:25:15;-1.00;99.90
1534;DHT22;760;48.822;9.304;2023-03-04T05:27:41;-1.00;99.90
1534;DHT22;760;48.822;9.304;2023-03-04T05:30:07;-1.00;99.90
1534;DHT22;760;48.822;9.304;2023-03-04T05:32:33;-1.00;99.90
1534;DHT22;760;48.822;9.304;2023-03-04T05:34:58;-1.10;99.90
1534;DHT22;760;48.822;9.304;2023-03-04T05:37:24;-1.10;99.90
1534;DHT22;760;48.822;9.304;2023-03-04T05:39:49;-1.10;99.90
1534;DHT22;760;48.822;9.304;2023-03-04T05:42:15;-1.10;99.90
1534;DHT22;760;48.822;9.304;2023-03-04T05:44:40;-1.10;99.90
1534;DHT22;760;48.822;9.304;2023-03-04T05:47:06;-1.10;99.90
1534;DHT22;760;48.822;9.304;2023-03-04T05:49:31;-1.10;99.90
1534;DHT22;760;48.822;9.304;2023-03-04T05:51:57;-1.10;99.90
1534;DHT22;760;48.822;9.304;2023-03-04T05:54:23;-1.10;99.90
1534;DHT22;760;48.822;9.304;2023-03-04T05:56:48;-1.10;99.90
1534;DHT22;760;48.822;9.304;2023-03-04T05:59:14;-1.20;99.90
1534;DHT22;760;48.822;9.304;2023-03-04T06:01:45;-1.10;99.90
1534;DHT22;760;48.822;9.304;2023-03-04T06:04:10;-1.20;99.90
1534;DHT22;760;48.822;9.304;2023-03-04T06:06:36;-1.20;99.90
1534;DHT22;760;48.822;9.304;2023-03-04T06:09:01;-1.20;99.90
1534;DHT22;760;48.822;9.304;2023-03-04T06:11:27;-1.20;99.90
1534;DHT22;760;48.822;9.304;2023-03-04T06:13:53;-1.10;99.90
1534;DHT22;760;48.822;9.304;2023-03-04T06:16:18;-1.10;99.90
1534;DHT22;760;48.822;9.304;2023-03-04T06:18:44;-1.10;99.90
1534;DHT22;760;48.822;9.304;2023-03-04T06:21:09;-1.10;99.90
1534;DHT22;760;48.822;9.304;2023-03-04T06:23:35;-1.00;99.90
1534;DHT22;760;48.822;9.304;2023-03-04T06:26:01;-1.10;99.90
1534;DHT22;760;48.822;9.304;2023-03-04T06:28:27;-1.00;99.90
1534;DHT22;760;48.822;9.304;2023-03-04T06:30:54;-1.00;99.90
1534;DHT22;760;48.822;9.304;2023-03-04T06:33:20;-0.90;99.90
1534;DHT22;760;48.822;9.304;2023-03-04T06:35:47;-0.90;99.90
1534;DHT22;760;48.822;9.304;2023-03-04T06:38:12;-0.90;99.90
1534;DHT22;760;48.822;9.304;2023-03-04T06:40:38;-0.80;99.90
1534;DHT22;760;48.822;9.304;2023-03-04T06:43:04;-0.80;99.90
1534;DHT22;760;48.822;9.304;2023-03-04T06:45:29;-0.70;99.90
1534;DHT22;760;48.822;9.304;2023-03-04T06:47:55;-0.60;99.90
1534;DHT22;760;48.822;9.304;2023-03-04T06:50:20;-0.50;99.90
1534;DHT22;760;48.822;9.304;2023-03-04T06:52:46;-0.50;99.90
1534;DHT22;760;48.822;9.304;2023-03-04T06:55:13;-0.30;99.90
1534;DHT22;760;48.822;9.304;2023-03-04T06:57:39;-0.20;99.90
1534;DHT22;760;48.822;9.304;2023-03-04T07:00:05;-0.20;99.90
1534;DHT22;760;48.822;9.304;2023-03-04T07:02:31;-0.10;99.90
1534;DHT22;760;48.822;9.304;2023-03-04T07:04:57;0.00;99.90
1534;DHT22;760;48.822;9.304;2023-03-04T07:07:24;0.00;99.90
1534;DHT22;760;48.822;9.304;2023-03-04T07:09:50;0.10;99.90
1534;DHT22;760;48.822;9.304;2023-03-04T07:12:16;0.20;99.90
1534;DHT22;760;48.822;9.304;2023-03-04T07:14:42;0.30;99.90
1534;DHT22;760;48.822;9.304;2023-03-04T07:17:07;0.40;99.90
1534;DHT22;760;48.822;9.304;2023-03-04T07:19:33;0.50;99.90
1534;DHT22;760;48.822;9.304;2023-03-04T07:21:58;0.50;99.90
1534;DHT22;760;48.822;9.304;2023-03-04T07:24:24;0.60;99.90
1534;DHT22;760;48.822;9.304;2023-03-04T07:26:49;0.60;99.90
1534;DHT22;760;48.822;9.304;2023-03-04T07:29:15;0.70;99.90
1534;DHT22;760;48.822;9.304;2023-03-04T07:31:41;0.70;99.90
1534;DHT22;760;48.822;9.304;2023-03-04T07:34:09;0.80;99.90
1534;DHT22;760;48.822;9.304;2023-03-04T07:36:36;0.90;99.90
1534;DHT22;760;48.822;9.304;2023-03-04T07:39:02;0.90;99.90
1534;DHT22;760;48.822;9.304;2023-03-04T07:41:28;0.90;99.90
1534;DHT22;760;48.822;9.304;2023-03-04T07:43:57;1.00;99.90
1534;DHT22;760;48.822;9.304;2023-03-04T07:46:24;1.10;99.90
1534;DHT22;760;48.822;9.304;2023-03-04T07:48:49;1.20;99.90
1534;DHT22;760;48.822;9.304;2023-03-04T07:51:20;1.20;99.90
1534;DHT22;760;48.822;9.304;2023-03-04T07:53:48;1.20;99.90
1534;DHT22;760;48.822;9.304;2023-03-04T07:56:21;1.10;99.90
1534;DHT22;760;48.822;9.304;2023-03-04T07:58:47;1.30;99.90
1534;DHT22;760;48.822;9.304;2023-03-04T08:01:19;1.30;99.90
1534;DHT22;760;48.822;9.304;2023-03-04T08:03:45;1.40;99.90
1534;DHT22;760;48.822;9.304;2023-03-04T08:06:14;1.40;99.90
1534;DHT22;760;48.822;9.304;2023-03-04T08:08:40;1.30;99.90
1534;DHT22;760;48.822;9.304;2023-03-04T08:11:12;1.40;99.90
1534;DHT22;760;48.822;9.304;2023-03-04T08:13:38;1.40;99.90
1534;DHT22;760;48.822;9.304;2023-03-04T08:16:04;1.60;99.90
1534;DHT22;760;48.822;9.304;2023-03-04T08:18:30;1.70;99.90
1534;DHT22;760;48.822;9.304;2023-03-04T08:20:55;1.80;99.90
1534;DHT22;760;48.822;9.304;2023-03-04T08:23:21;1.80;99.90
1534;DHT22;760;48.822;9.304;2023-03-04T08:25:48;1.80;99.90
1534;DHT22;760;48.822;9.304;2023-03-04T08:28:14;1.90;99.90
1534;DHT22;760;48.822;9.304;2023-03-04T08:30:41;1.90;99.90
1534;DHT22;760;48.822;9.304;2023-03-04T08:33:07;1.90;99.90
1534;DHT22;760;48.822;9.304;2023-03-04T08:35:37;1.90;99.90
1534;DHT22;760;48.822;9.304;2023-03-04T08:38:03;2.00;99.90
1534;DHT22;760;48.822;9.304;2023-03-04T08:40:28;2.00;99.90
1534;DHT22;760;48.822;9.304;2023-03-04T08:42:55;2.00;99.90
1534;DHT22;760;48.822;9.304;2023-03-04T08:45:21;2.10;99.90
1534;DHT22;760;48.822;9.304;2023-03-04T08:47:46;2.10;99.90
1534;DHT22;760;48.822;9.304;2023-03-04T08:50:12;2.10;99.90
1534;DHT22;760;48.822;9.304;2023-03-04T08:52:38;2.20;99.90
1534;DHT22;760;48.822;9.304;2023-03-04T08:55:03;2.10;99.90
1534;DHT22;760;48.822;9.304;2023-03-04T08:57:29;2.20;99.90
1534;DHT22;760;48.822;9.304;2023-03-04T08:59:55;2.40;99.90
1534;DHT22;760;48.822;9.304;2023-03-04T09:02:20;2.50;99.90
1534;DHT22;760;48.822;9.304;2023-03-04T09:04:46;2.60;99.90
1534;DHT22;760;48.822;9.304;2023-03-04T09:07:11;2.70;99.90
1534;DHT22;760;48.822;9.304;2023-03-04T09:09:38;2.70;99.90
1534;DHT22;760;48.822;9.304;2023-03-04T09:12:04;2.70;99.90
1534;DHT22;760;48.822;9.304;2023-03-04T09:14:30;2.80;99.90
1534;DHT22;760;48.822;9.304;2023-03-04T09:16:57;2.80;99.90
1534;DHT22;760;48.822;9.304;2023-03-04T09:19:23;2.80;99.90
1534;DHT22;760;48.822;9.304;2023-03-04T09:21:48;2.80;99.90
1534;DHT22;760;48.822;9.304;2023-03-04T09:24:14;2.90;99.90
1534;DHT22;760;48.822;9.304;2023-03-04T09:26:40;3.00;99.90
1534;DHT22;760;48.822;9.304;2023-03-04T09:29:05;3.00;99.90
1534;DHT22;760;48.822;9.304;2023-03-04T09:31:31;3.00;99.90
1534;DHT22;760;48.822;9.304;2023-03-04T09:33:58;3.10;99.90
1534;DHT22;760;48.822;9.304;2023-03-04T09:36:24;3.20;99.90
1534;DHT22;760;48.822;9.304;2023-03-04T09:38:50;3.20;99.90
1534;DHT22;760;48.822;9.304;2023-03-04T09:41:50;3.30;99.90
1534;DHT22;760;48.822;9.304;2023-03-04T09:44:40;3.40;99.90
1534;DHT22;760;48.822;9.304;2023-03-04T09:47:12;3.60;99.90
1534;DHT22;760;48.822;9.304;2023-03-04T09:49:40;3.70;99.90
1534;DHT22;760;48.822;9.304;2023-03-04T09:55:17;3.80;99.90
1534;DHT22;760;48.822;9.304;2023-03-04T10:00:55;3.80;99.90
1534;DHT22;760;48.822;9.304;2023-03-04T10:03:39;3.70;99.90
1534;DHT22;760;48.822;9.304;2023-03-04T10:06:12;3.70;99.90
1534;DHT22;760;48.822;9.304;2023-03-04T10:09:09;3.70;99.90
1534;DHT22;760;48.822;9.304;2023-03-04T10:11:47;3.90;99.90
1534;DHT22;760;48.822;9.304;2023-03-04T10:19:33;4.40;99.90
1534;DHT22;760;48.822;9.304;2023-03-04T10:24:45;4.60;99.90
1534;DHT22;760;48.822;9.304;2023-03-04T10:27:14;4.70;99.90
1534;DHT22;760;48.822;9.304;2023-03-04T10:29:41;4.80;99.90
1534;DHT22;760;48.822;9.304;2023-03-04T10:32:13;4.80;99.90
1534;DHT22;760;48.822;9.304;2023-03-04T10:34:40;4.90;99.90
1534;DHT22;760;48.822;9.304;2023-03-04T10:37:06;5.10;99.90
1534;DHT22;760;48.822;9.304;2023-03-04T10:39:37;5.20;99.90
1534;DHT22;760;48.822;9.304;2023-03-04T10:42:23;5.20;99.90
1534;DHT22;760;48.822;9.304;2023-03-04T10:47:18;5.20;99.90
1534;DHT22;760;48.822;9.304;2023-03-04T10:49:57;5.20;99.90
1534;DHT22;760;48.822;9.304;2023-03-04T10:52:30;5.30;99.90
1534;DHT22;760;48.822;9.304;2023-03-04T10:54:59;5.30;99.90
1534;DHT22;760;48.822;9.304;2023-03-04T10:57:33;5.30;99.90
1534;DHT22;760;48.822;9.304;2023-03-04T11:02:47;5.30;99.90
1534;DHT22;760;48.822;9.304;2023-03-04T11:07:54;4.90;99.90
1534;DHT22;760;48.822;9.304;2023-03-04T11:10:38;5.00;99.90
1534;DHT22;760;48.822;9.304;2023-03-04T11:21:02;5.10;99.90
1534;DHT22;760;48.822;9.304;2023-03-04T11:24:01;5.10;99.90
1534;DHT22;760;48.822;9.304;2023-03-04T11:26:39;5.20;99.90
1534;DHT22;760;48.822;9.304;2023-03-04T11:34:33;5.20;99.90
1534;DHT22;760;48.822;9.304;2023-03-04T11:42:42;5.10;99.90
1534;DHT22;760;48.822;9.304;2023-03-04T11:45:15;5.00;99.90
1534;DHT22;760;48.822;9.304;2023-03-04T11:47:54;5.00;99.90
1534;DHT22;760;48.822;9.304;2023-03-04T11:59:14;4.80;99.90
1534;DHT22;760;48.822;9.304;2023-03-04T12:05:13;4.70;99.90
1534;DHT22;760;48.822;9.304;2023-03-04T12:12:52;4.60;99.90
1534;DHT22;760;48.822;9.304;2023-03-04T12:18:01;4.70;99.90
1534;DHT22;760;48.822;9.304;2023-03-04T12:23:22;4.80;99.90
1534;DHT22;760;48.822;9.304;2023-03-04T12:26:01;4.80;99.90
1534;DHT22;760;48.822;9.304;2023-03-04T12:28:46;4.80;99.90
1534;DHT22;760;48.822;9.304;2023-03-04T12:31:23;4.70;99.90
1534;DHT22;760;48.822;9.304;2023-03-04T12:50:23;4.80;99.90
1534;DHT22;760;48.822;9.304;2023-03-04T12:53:41;4.80;99.90
1534;DHT22;760;48.822;9.304;2023-03-04T12:55:41;4.80;99.90
1534;DHT22;760;48.822;9.304;2023-03-04T12:58:17;4.90;99.90
1534;DHT22;760;48.822;9.304;2023-03-04T13:00:46;4.90;99.90
1534;DHT22;760;48.822;9.304;2023-03-04T13:06:33;4.90;99.90
1534;DHT22;760;48.822;9.304;2023-03-04T13:09:06;4.80;99.90
1534;DHT22;760;48.822;9.304;2023-03-04T13:16:49;4.80;99.90
1534;DHT22;760;48.822;9.304;2023-03-04T13:19:51;4.80;99.90
1534;DHT22;760;48.822;9.304;2023-03-04T13:38:22;4.60;99.90
1534;DHT22;760;48.822;9.304;2023-03-04T13:51:41;4.60;99.90
1534;DHT22;760;48.822;9.304;2023-03-04T13:57:09;4.60;99.90
1534;DHT22;760;48.822;9.304;2023-03-04T13:59:37;4.60;99.90
1534;DHT22;760;48.822;9.304;2023-03-04T14:02:15;4.60;99.90
1534;DHT22;760;48.822;9.304;2023-03-04T14:10:07;4.40;99.90
1534;DHT22;760;48.822;9.304;2023-03-04T14:12:45;4.40;99.90
1534;DHT22;760;48.822;9.304;2023-03-04T14:17:39;4.40;99.90
1534;DHT22;760;48.822;9.304;2023-03-04T14:20:28;4.30;99.90
1534;DHT22;760;48.822;9.304;2023-03-04T14:22:55;4.30;99.90
1534;DHT22;760;48.822;9.304;2023-03-04T14:25:27;4.30;99.90
1534;DHT22;760;48.822;9.304;2023-03-04T14:28:11;4.30;99.90
1534;DHT22;760;48.822;9.304;2023-03-04T14:30:37;4.30;99.90
1534;DHT22;760;48.822;9.304;2023-03-04T14:33:07;4.30;99.90
1534;DHT22;760;48.822;9.304;2023-03-04T14:35:33;4.30;99.90
1534;DHT22;760;48.822;9.304;2023-03-04T14:38:00;4.20;99.90
1534;DHT22;760;48.822;9.304;2023-03-04T14:40:41;4.10;99.90
1534;DHT22;760;48.822;9.304;2023-03-04T14:43:19;4.10;99.90
1534;DHT22;760;48.822;9.304;2023-03-04T14:45:51;4.10;99.90
1534;DHT22;760;48.822;9.304;2023-03-04T14:48:33;4.00;99.90
1534;DHT22;760;48.822;9.304;2023-03-04T14:51:00;4.00;99.90
1534;DHT22;760;48.822;9.304;2023-03-04T14:53:31;3.90;99.90
1534;DHT22;760;48.822;9.304;2023-03-04T14:56:05;3.90;99.90
1534;DHT22;760;48.822;9.304;2023-03-04T14:58:37;3.90;99.90
1534;DHT22;760;48.822;9.304;2023-03-04T15:01:18;3.90;99.90
1534;DHT22;760;48.822;9.304;2023-03-04T15:04:09;3.90;99.90
1534;DHT22;760;48.822;9.304;2023-03-04T15:06:47;3.90;99.90
1534;DHT22;760;48.822;9.304;2023-03-04T15:09:21;3.90;99.90
1534;DHT22;760;48.822;9.304;2023-03-04T15:11:50;3.90;99.90
1534;DHT22;760;48.822;9.304;2023-03-04T15:14:48;3.90;99.90
1534;DHT22;760;48.822;9.304;2023-03-04T15:17:37;4.00;99.90
1534;DHT22;760;48.822;9.304;2023-03-04T15:22:36;3.90;99.90
1534;DHT22;760;48.822;9.304;2023-03-04T15:25:20;3.90;99.90
1534;DHT22;760;48.822;9.304;2023-03-04T15:27:47;3.90;99.90
1534;DHT22;760;48.822;9.304;2023-03-04T15:30:27;3.90;99.90
1534;DHT22;760;48.822;9.304;2023-03-04T15:32:56;3.90;99.90
1534;DHT22;760;48.822;9.304;2023-03-04T15:35:22;3.90;99.90
1534;DHT22;760;48.822;9.304;2023-03-04T15:37:50;3.90;99.90
1534;DHT22;760;48.822;9.304;2023-03-04T15:40:28;3.90;99.90
1534;DHT22;760;48.822;9.304;2023-03-04T15:42:56;3.90;99.90
1534;DHT22;760;48.822;9.304;2023-03-04T15:45:32;3.90;99.90
1534;DHT22;760;48.822;9.304;2023-03-04T15:48:00;3.80;99.90
1534;DHT22;760;48.822;9.304;2023-03-04T15:50:29;3.80;99.90
1534;DHT22;760;48.822;9.304;2023-03-04T15:53:00;3.80;99.90
1534;DHT22;760;48.822;9.304;2023-03-04T15:55:27;3.80;99.90
1534;DHT22;760;48.822;9.304;2023-03-04T15:57:56;3.70;99.90
1534;DHT22;760;48.822;9.304;2023-03-04T16:00:22;3.70;99.90
1534;DHT22;760;48.822;9.304;2023-03-04T16:02:47;3.70;99.90
1534;DHT22;760;48.822;9.304;2023-03-04T16:05:14;3.70;99.90
1534;DHT22;760;48.822;9.304;2023-03-04T16:07:41;3.80;99.90
1534;DHT22;760;48.822;9.304;2023-03-04T16:10:24;3.80;99.90
1534;DHT22;760;48.822;9.304;2023-03-04T16:12:51;3.80;99.90
1534;DHT22;760;48.822;9.304;2023-03-04T16:15:23;3.70;99.90
1534;DHT22;760;48.822;9.304;2023-03-04T16:17:50;3.70;99.90
1534;DHT22;760;48.822;9.304;2023-03-04T16:20:19;3.70;99.90
1534;DHT22;760;48.822;9.304;2023-03-04T16:22:47;3.70;99.90
1534;DHT22;760;48.822;9.304;2023-03-04T16:25:15;3.70;99.90
1534;DHT22;760;48.822;9.304;2023-03-04T16:27:41;3.70;99.90
1534;DHT22;760;48.822;9.304;2023-03-04T16:30:13;3.70;99.90
1534;DHT22;760;48.822;9.304;2023-03-04T16:32:39;3.70;99.90
1534;DHT22;760;48.822;9.304;2023-03-04T16:35:05;3.70;99.90
1534;DHT22;760;48.822;9.304;2023-03-04T16:37:31;3.70;99.90
1534;DHT22;760;48.822;9.304;2023-03-04T16:39:58;3.70;99.90
1534;DHT22;760;48.822;9.304;2023-03-04T16:42:24;3.70;99.90
1534;DHT22;760;48.822;9.304;2023-03-04T16:44:51;3.70;99.90
1534;DHT22;760;48.822;9.304;2023-03-04T16:47:17;3.70;99.90
1534;DHT22;760;48.822;9.304;2023-03-04T16:49:43;3.70;99.90
1534;DHT22;760;48.822;9.304;2023-03-04T16:52:21;3.70;99.90
1534;DHT22;760;48.822;9.304;2023-03-04T16:54:48;3.70;99.90
1534;DHT22;760;48.822;9.304;2023-03-04T16:57:14;3.70;99.90
1534;DHT22;760;48.822;9.304;2023-03-04T16:59:41;3.70;99.90
1534;DHT22;760;48.822;9.304;2023-03-04T17:02:18;3.70;99.90
1534;DHT22;760;48.822;9.304;2023-03-04T17:04:48;3.70;99.90
1534;DHT22;760;48.822;9.304;2023-03-04T17:07:13;3.70;99.90
1534;DHT22;760;48.822;9.304;2023-03-04T17:09:39;3.70;99.90
1534;DHT22;760;48.822;9.304;2023-03-04T17:12:08;3.70;99.90
1534;DHT22;760;48.822;9.304;2023-03-04T17:14:34;3.70;99.90
1534;DHT22;760;48.822;9.304;2023-03-04T17:17:01;3.70;99.90
1534;DHT22;760;48.822;9.304;2023-03-04T17:19:27;3.70;99.90
1534;DHT22;760;48.822;9.304;2023-03-04T17:21:55;3.80;99.90
1534;DHT22;760;48.822;9.304;2023-03-04T17:24:22;3.80;99.90
1534;DHT22;760;48.822;9.304;2023-03-04T17:26:47;3.70;99.90
1534;DHT22;760;48.822;9.304;2023-03-04T17:29:13;3.70;99.90
1534;DHT22;760;48.822;9.304;2023-03-04T17:31:39;3.70;99.90
1534;DHT22;760;48.822;9.304;2023-03-04T17:34:04;3.70;99.90
1534;DHT22;760;48.822;9.304;2023-03-04T17:36:31;3.70;99.90
1534;DHT22;760;48.822;9.304;2023-03-04T17:38:58;3.80;99.90
1534;DHT22;760;48.822;9.304;2023-03-04T17:41:23;3.80;99.90
1534;DHT22;760;48.822;9.304;2023-03-04T17:43:51;3.70;99.90
1534;DHT22;760;48.822;9.304;2023-03-04T17:46:20;3.70;99.90
1534;DHT22;760;48.822;9.304;2023-03-04T17:48:46;3.80;99.90
1534;DHT22;760;48.822;9.304;2023-03-04T17:51:12;3.80;99.90
1534;DHT22;760;48.822;9.304;2023-03-04T17:53:38;3.80;99.90
1534;DHT22;760;48.822;9.304;2023-03-04T17:56:07;3.90;99.90
1534;DHT22;760;48.822;9.304;2023-03-04T17:58:34;3.90;99.90
1534;DHT22;760;48.822;9.304;2023-03-04T18:01:05;3.90;99.90
1534;DHT22;760;48.822;9.304;2023-03-04T18:03:32;3.90;99.90
1534;DHT22;760;48.822;9.304;2023-03-04T18:05:57;3.90;99.90
1534;DHT22;760;48.822;9.304;2023-03-04T18:08:23;3.90;99.90
1534;DHT22;760;48.822;9.304;2023-03-04T18:10:49;4.00;99.90
1534;DHT22;760;48.822;9.304;2023-03-04T18:13:14;4.00;99.90
1534;DHT22;760;48.822;9.304;2023-03-04T18:15:40;4.00;99.90
1534;DHT22;760;48.822;9.304;2023-03-04T18:18:06;4.00;99.90
1534;DHT22;760;48.822;9.304;2023-03-04T18:20:32;4.00;99.90
1534;DHT22;760;48.822;9.304;2023-03-04T18:22:57;4.00;99.90
1534;DHT22;760;48.822;9.304;2023-03-04T18:25:24;4.00;99.90
1534;DHT22;760;48.822;9.304;2023-03-04T18:27:49;4.00;99.90
1534;DHT22;760;48.822;9.304;2023-03-04T18:30:16;4.00;99.90
1534;DHT22;760;48.822;9.304;2023-03-04T18:32:45;4.00;99.90
1534;DHT22;760;48.822;9.304;2023-03-04T18:35:11;4.00;99.90
1534;DHT22;760;48.822;9.304;2023-03-04T18:37:37;3.90;99.90
1534;DHT22;760;48.822;9.304;2023-03-04T18:40:04;3.90;99.90
1534;DHT22;760;48.822;9.304;2023-03-04T18:42:31;3.90;99.90
1534;DHT22;760;48.822;9.304;2023-03-04T18:44:56;3.90;99.90
1534;DHT22;760;48.822;9.304;2023-03-04T18:47:23;3.90;99.90
1534;DHT22;760;48.822;9.304;2023-03-04T18:49:49;3.90;99.90
1534;DHT22;760;48.822;9.304;2023-03-04T18:52:15;3.90;99.90
1534;DHT22;760;48.822;9.304;2023-03-04T18:54:41;3.90;99.90
1534;DHT22;760;48.822;9.304;2023-03-04T18:57:09;3.90;99.90
1534;DHT22;760;48.822;9.304;2023-03-04T18:59:48;4.00;99.90
1534;DHT22;760;48.822;9.304;2023-03-04T19:02:35;3.90;99.90
1534;DHT22;760;48.822;9.304;2023-03-04T19:05:13;4.00;99.90
1534;DHT22;760;48.822;9.304;2023-03-04T19:07:41;3.90;99.90
1534;DHT22;760;48.822;9.304;2023-03-04T19:10:07;3.90;99.90
1534;DHT22;760;48.822;9.304;2023-03-04T19:12:33;3.90;99.90
1534;DHT22;760;48.822;9.304;2023-03-04T19:14:59;3.80;99.90
1534;DHT22;760;48.822;9.304;2023-03-04T19:17:25;3.90;99.90
1534;DHT22;760;48.822;9.304;2023-03-04T19:19:53;3.90;99.90
1534;DHT22;760;48.822;9.304;2023-03-04T19:22:18;3.90;99.90
1534;DHT22;760;48.822;9.304;2023-03-04T19:24:44;3.90;99.90
1534;DHT22;760;48.822;9.304;2023-03-04T19:27:10;3.90;99.90
1534;DHT22;760;48.822;9.304;2023-03-04T19:29:36;3.90;99.90
1534;DHT22;760;48.822;9.304;2023-03-04T19:32:01;4.00;99.90
1534;DHT22;760;48.822;9.304;2023-03-04T19:34:27;4.00;99.90
1534;DHT22;760;48.822;9.304;2023-03-04T19:36:53;4.10;99.90
1534;DHT22;760;48.822;9.304;2023-03-04T19:39:18;4.10;99.90
1534;DHT22;760;48.822;9.304;2023-03-04T19:41:44;4.10;99.90
1534;DHT22;760;48.822;9.304;2023-03-04T19:44:09;4.10;99.90
1534;DHT22;760;48.822;9.304;2023-03-04T19:46:35;4.10;99.90
1534;DHT22;760;48.822;9.304;2023-03-04T19:49:01;4.10;99.90
1534;DHT22;760;48.822;9.304;2023-03-04T19:51:28;4.10;99.90
1534;DHT22;760;48.822;9.304;2023-03-04T19:53:56;4.10;99.90
1534;DHT22;760;48.822;9.304;2023-03-04T19:56:22;4.10;99.90
1534;DHT22;760;48.822;9.304;2023-03-04T19:58:48;4.10;99.90
1534;DHT22;760;48.822;9.304;2023-03-04T20:03:55;4.10;99.90
1534;DHT22;760;48.822;9.304;2023-03-04T20:06:21;4.20;99.90
1534;DHT22;760;48.822;9.304;2023-03-04T20:08:49;4.10;99.90
1534;DHT22;760;48.822;9.304;2023-03-04T20:11:15;4.10;99.90
1534;DHT22;760;48.822;9.304;2023-03-04T20:13:42;4.10;99.90
1534;DHT22;760;48.822;9.304;2023-03-04T20:16:09;4.10;99.90
1534;DHT22;760;48.822;9.304;2023-03-04T20:18:36;4.10;99.90
1534;DHT22;760;48.822;9.304;2023-03-04T20:21:02;4.10;99.90
1534;DHT22;760;48.822;9.304;2023-03-04T20:23:27;4.10;99.90
1534;DHT22;760;48.822;9.304;2023-03-04T20:25:54;4.10;99.90
1534;DHT22;760;48.822;9.304;2023-03-04T20:28:21;4.10;99.90
1534;DHT22;760;48.822;9.304;2023-03-04T20:30:47;4.10;99.90
1534;DHT22;760;48.822;9.304;2023-03-04T20:33:12;4.10;99.90
1534;DHT22;760;48.822;9.304;2023-03-04T20:35:38;4.10;99.90
1534;DHT22;760;48.822;9.304;2023-03-04T20:38:07;4.20;99.90
1534;DHT22;760;48.822;9.304;2023-03-04T20:40:34;4.20;99.90
1534;DHT22;760;48.822;9.304;2023-03-04T20:43:01;4.20;99.90
1534;DHT22;760;48.822;9.304;2023-03-04T20:45:30;4.10;99.90
1534;DHT22;760;48.822;9.304;2023-03-04T20:47:56;4.10;99.90
1534;DHT22;760;48.822;9.304;2023-03-04T20:50:21;4.10;99.90
1534;DHT22;760;48.822;9.304;2023-03-04T20:52:53;4.10;99.90
1534;DHT22;760;48.822;9.304;2023-03-04T20:55:19;4.10;99.90
1534;DHT22;760;48.822;9.304;2023-03-04T20:57:45;4.10;99.90
1534;DHT22;760;48.822;9.304;2023-03-04T21:00:12;4.10;99.90
1534;DHT22;760;48.822;9.304;2023-03-04T21:02:37;4.20;99.90
1534;DHT22;760;48.822;9.304;2023-03-04T21:05:03;4.20;99.90
1534;DHT22;760;48.822;9.304;2023-03-04T21:07:29;4.20;99.90
1534;DHT22;760;48.822;9.304;2023-03-04T21:09:55;4.20;99.90
1534;DHT22;760;48.822;9.304;2023-03-04T21:12:21;4.20;99.90
1534;DHT22;760;48.822;9.304;2023-03-04T21:14:47;4.20;99.90
1534;DHT22;760;48.822;9.304;2023-03-04T21:17:13;4.20;99.90
1534;DHT22;760;48.822;9.304;2023-03-04T21:19:40;4.20;99.90
1534;DHT22;760;48.822;9.304;2023-03-04T21:22:13;4.20;99.90
1534;DHT22;760;48.822;9.304;2023-03-04T21:24:40;4.20;99.90
1534;DHT22;760;48.822;9.304;2023-03-04T21:27:06;4.20;99.90
1534;DHT22;760;48.822;9.304;2023-03-04T21:29:33;4.20;99.90
1534;DHT22;760;48.822;9.304;2023-03-04T21:32:05;4.20;99.90
1534;DHT22;760;48.822;9.304;2023-03-04T21:34:37;4.30;99.90
1534;DHT22;760;48.822;9.304;2023-03-04T21:37:04;4.20;99.90
1534;DHT22;760;48.822;9.304;2023-03-04T21:39:30;4.20;99.90
1534;DHT22;760;48.822;9.304;2023-03-04T21:41:57;4.30;99.90
1534;DHT22;760;48.822;9.304;2023-03-04T21:44:23;4.30;99.90
1534;DHT22;760;48.822;9.304;2023-03-04T21:46:49;4.30;99.90
1534;DHT22;760;48.822;9.304;2023-03-04T21:49:15;4.30;99.90
1534;DHT22;760;48.822;9.304;2023-03-04T21:51:43;4.30;99.90
1534;DHT22;760;48.822;9.304;2023-03-04T21:54:10;4.30;99.90
1534;DHT22;760;48.822;9.304;2023-03-04T21:56:37;4.20;99.90
1534;DHT22;760;48.822;9.304;2023-03-04T21:59:04;4.30;99.90
1534;DHT22;760;48.822;9.304;2023-03-04T22:01:31;4.20;99.90
1534;DHT22;760;48.822;9.304;2023-03-04T22:03:57;4.30;99.90
1534;DHT22;760;48.822;9.304;2023-03-04T22:06:23;4.20;99.90
1534;DHT22;760;48.822;9.304;2023-03-04T22:08:52;4.20;99.90
1534;DHT22;760;48.822;9.304;2023-03-04T22:11:19;4.20;99.90
1534;DHT22;760;48.822;9.304;2023-03-04T22:13:45;4.20;99.90
1534;DHT22;760;48.822;9.304;2023-03-04T22:16:11;4.20;99.90
1534;DHT22;760;48.822;9.304;2023-03-04T22:18:37;4.20;99.90
1534;DHT22;760;48.822;9.304;2023-03-04T22:21:07;4.20;99.90
1534;DHT22;760;48.822;9.304;2023-03-04T22:23:35;4.20;99.90
1534;DHT22;760;48.822;9.304;2023-03-04T22:26:05;4.20;99.90
1534;DHT22;760;48.822;9.304;2023-03-04T22:28:31;4.20;99.90
1534;DHT22;760;48.822;9.304;2023-03-04T22:30:57;4.20;99.90
1534;DHT22;760;48.822;9.304;2023-03-04T22:33:24;4.20;99.90
1534;DHT22;760;48.822;9.304;2023-03-04T22:35:50;4.20;99.90
1534;DHT22;760;48.822;9.304;2023-03-04T22:38:17;4.20;99.90
1534;DHT22;760;48.822;9.304;2023-03-04T22:40:42;4.30;99.90
1534;DHT22;760;48.822;9.304;2023-03-04T22:43:08;4.30;99.90
1534;DHT22;760;48.822;9.304;2023-03-04T22:45:34;4.30;99.90
1534;DHT22;760;48.822;9.304;2023-03-04T22:48:00;4.30;99.90
1534;DHT22;760;48.822;9.304;2023-03-04T22:50:26;4.30;99.90
1534;DHT22;760;48.822;9.304;2023-03-04T22:52:51;4.30;99.90
1534;DHT22;760;48.822;9.304;2023-03-04T22:55:19;4.20;99.90
1534;DHT22;760;48.822;9.304;2023-03-04T22:57:45;4.20;99.90
1534;DHT22;760;48.822;9.304;2023-03-04T23:00:22;4.20;99.90
